Flight Track Log - Related Links

Times and Time Zones

All times are in EDT time to prevent confusion due to time zone crossing. See the N34996 flight status page for this flight to view local times or setup timezone preferences in your user account.

Time Position Orientation Groundspeed Altitude Reporting Facility
EDT Latitude Longitude Course Direction KTS MPH feet Rate Location/Type
Tue 05:34:12 PM 30.4911 -97.3650 130° Southeast 92 106 2,100  Level Houston Center
Tue 05:35:14 PM 30.4736 -97.3431 133° Southeast 92 106 2,500 387 Climbing Houston Center
Tue 05:36:16 PM 30.4592 -97.3231 130° Southeast 86 99 2,900 339 Climbing Houston Center
Tue 05:37:18 PM 30.4458 -97.3067 133° Southeast 75 86 3,200 242 Climbing Houston Center
Tue 05:38:00 PM 30.4521 -97.2763 130° Southeast  Level Estimated
Tue 05:38:20 PM 30.4283 -97.2881 137° Southeast 80 92 3,400  Level Houston Center
Tue 05:39:00 PM 30.4320 -97.2485 130° Southeast  Level Estimated
Tue 05:39:22 PM 30.4114 -97.2669 133° Southeast 87 100 3,500  Level Houston Center
Tue 05:40:23 PM 30.3942 -97.2453 133° Southeast 90 104 3,800 341 Climbing Houston Center
Tue 05:41:25 PM 30.3769 -97.2211 130° Southeast 85 98 4,200 339 Climbing Houston Center
Tue 05:42:27 PM 30.3619 -97.2028 133° Southeast 80 92 4,500 290 Climbing Houston Center
Tue 05:43:29 PM 30.3456 -97.1836 135° Southeast 81 93 4,800 242 Climbing Houston Center
Tue 05:44:31 PM 30.3292 -97.1611 130° Southeast 87 100 5,000 145 Climbing Houston Center
Tue 05:45:33 PM 30.3067 -97.1389 140° Southeast 99 114 5,100 48 Climbing Houston Center
Tue 05:46:35 PM 30.2850 -97.1136 135° Southeast 106 122 5,100  Level Houston Center
Tue 05:47:37 PM 30.2639 -97.0881 134° Southeast 108 124 5,100  Level Houston Center
Tue 05:48:39 PM 30.2481 -97.0531 118° Southeast 105 121 5,100  Level Houston Center
Tue 05:49:12 PM 30.2403 -97.0400 125° Southeast 106 122 5,100 -64 Level Houston Center
Tue 05:50:13 PM 30.2231 -97.0103 124° Southeast 107 123 5,000  Descending Houston Center
Tue 05:50:43 PM 30.2172 -96.9958 115° Southeast 104 120 5,100 65 Climbing Houston Center
Tue 05:51:45 PM 30.2019 -96.9656 120° Southeast 105 121 5,100  Level Houston Center
Tue 05:52:16 PM 30.1911 -96.9511 131° Southeast 111 128 5,100  Level Houston Center
Tue 05:52:47 PM 30.1867 -96.9364 109° East 106 122 5,100 65 Level Houston Center
Tue 05:53:49 PM 30.1694 -96.9067 124° Southeast 110 127 5,200 -65 Climbing Houston Center
Tue 05:54:19 PM 30.1569 -96.8894 130° Southeast 107 123 5,000  Descending Houston Center
Tue 05:54:51 PM 30.1528 -96.8772 112° Southeast 109 125 5,200 64 Climbing Houston Center
Tue 05:55:53 PM 30.1386 -96.8483 120° Southeast 103 119 5,100 -63 Descending Houston Center
Tue 05:56:27 PM 30.1269 -96.8275 123° Southeast 106 122 5,100  Level Houston Center
Tue 05:57:57 PM 30.1047 -96.7850 121° Southeast 107 123 5,100 39 Level Houston Center
Tue 05:58:59 PM 30.0881 -96.7542 122° Southeast 111 128 5,200  Climbing Houston Center
Tue 05:59:31 PM 30.0775 -96.7361 124° Southeast 110 127 5,100  Descending Houston Center
Tue 06:00:01 PM 30.0711 -96.7250 124° Southeast 110 127 5,200 65 Climbing Houston Center
Tue 06:01:03 PM 30.0558 -96.6958 121° Southeast 108 124 5,200  Level Houston Center
Tue 06:02:05 PM 30.0400 -96.6636 120° Southeast 112 129 5,200  Level Houston Center
Tue 06:03:06 PM 30.0194 -96.6267 123° Southeast 114 131 5,200  Level Houston Center
Tue 06:04:08 PM 30.0031 -96.5961 122° Southeast 113 130 5,200  Level Houston Center
Tue 06:05:10 PM 29.9869 -96.5650 121° Southeast 112 129 5,200  Level Houston Center
Tue 06:06:12 PM 29.9708 -96.5347 122° Southeast 112 129 5,200 -48 Level Houston Center
Tue 06:07:14 PM 29.9533 -96.5036 123° Southeast 114 131 5,100 -48 Descending Houston Center
Tue 06:08:16 PM 29.9378 -96.4725 120° Southeast 113 130 5,100 -65 Level Houston Center
Tue 06:08:47 PM 29.9264 -96.4539 125° Southeast 108 124 5,000  Descending Houston Center
Tue 06:09:18 PM 29.9208 -96.4456 128° Southeast 108 124 5,100 65 Climbing Houston Center
Tue 06:10:20 PM 29.9031 -96.4106 120° Southeast 106 122 5,100  Level Houston Center
Tue 06:11:22 PM 29.8869 -96.3797 121° Southeast 109 125 5,100  Level Houston Center
Tue 06:12:24 PM 29.8717 -96.3508 121° Southeast 108 124 5,100  Level Houston Center
Tue 06:13:26 PM 29.8553 -96.3211 122° Southeast 110 127 5,100  Level Houston Center
Tue 06:14:28 PM 29.8383 -96.2911 123° Southeast 111 128 5,100  Level Houston Center
Tue 06:15:30 PM 29.8225 -96.2614 122° Southeast 110 127 5,100  Level Houston Center
Tue 06:16:32 PM 29.8028 -96.2250 122° Southeast 111 128 5,100  Level Houston Center
Tue 06:17:34 PM 29.7803 -96.2000 136° Southeast 111 128 5,100  Level Houston Center
Tue 06:18:36 PM 29.7561 -96.1747 138° Southeast 114 131 5,100  Level Houston Center
Tue 06:19:38 PM 29.7325 -96.1481 136° Southeast 117 135 5,100  Level Houston Center
Tue 06:20:40 PM 29.7103 -96.1228 135° Southeast 114 131 5,100  Level Houston Center
Tue 06:21:42 PM 29.6875 -96.0978 136° Southeast 114 131 5,100  Level Houston Center
Tue 06:22:44 PM 29.6656 -96.0731 136° Southeast 110 127 5,100  Level Houston Center
Tue 06:23:46 PM 29.6397 -96.0444 136° Southeast 109 125 5,100  Level Houston Center
Tue 06:24:48 PM 29.6167 -96.0186 136° Southeast 114 131 5,100  Level Houston Center
Tue 06:25:50 PM 29.5931 -95.9925 136° Southeast 116 133 5,100  Level Houston Center
Tue 06:26:52 PM 29.5678 -95.9647 136° Southeast 114 131 5,100  Level Houston Center
Tue 06:27:54 PM 29.5439 -95.9400 138° Southeast 114 131 5,100  Level Houston Center
Tue 06:28:56 PM 29.5222 -95.9150 135° Southeast 112 129 5,100  Level Houston Center
Tue 06:29:58 PM 29.4989 -95.8894 136° Southeast 114 131 5,100  Level Houston Center
Tue 06:31:00 PM 29.4756 -95.8639 136° Southeast 116 133 5,100 49 Level Houston Center
Tue 06:32:01 PM 29.4494 -95.8344 136° Southeast 110 127 5,200  Climbing Houston Center
Tue 06:33:02 PM 29.4264 -95.8108 138° Southeast 115 132 5,100 -49 Descending Houston Center
Tue 06:34:03 PM 29.4031 -95.7847 136° Southeast 112 129 5,100  Level Houston Center
Tue 06:35:04 PM 29.3797 -95.7586 136° Southeast 111 128 5,100 -49 Level Houston Center
Tue 06:36:06 PM 29.3544 -95.7328 138° Southeast 124 143 5,000 -326 Descending Houston Center
Tue 06:37:13 PM 29.3317 -95.7047 133° Southeast 123 142 4,400 -590 Descending Houston Center
Tue 06:38:08 PM 29.3006 -95.6719 137° Southeast 132 152 3,800 -590 Descending Houston Center
Tue 06:39:15 PM 29.2928 -95.6297 102° East 137 158 3,200 -516 Descending Houston Center
Tue 06:40:16 PM 29.2886 -95.5847 96° East 141 162 2,700 -537 Descending Houston Center
Tue 06:41:18 PM 29.2886 -95.5369 90° East 140 161 2,100 -283 Descending Houston Center
Tue 06:42:23 PM 29.2869 -95.4997 93° East 136 157 2,100 -47 Level Houston Center
Tue 06:43:25 PM 29.2856 -95.4597 92° East 135 155 2,000 -97 Descending Houston Center
Tue 06:45:00 PM 29.2381 -95.4572 177° South  Level FlightAware Approximate
Tue 06:52:00 PM 29.1086 -95.4621 132° Southeast  Level Estimated
Tue 06:53:00 PM 29.1086 -95.4621 132° Southeast  Level Estimated
Tue 06:54:00 PM 29.1086 -95.4621 132° Southeast  Level Estimated
Tue 06:55:00 PM 29.1086 -95.4621 132° Southeast  Level Estimated
Tue 06:56:00 PM 29.1086 -95.4621 132° Southeast  Level Estimated

Login

Don't have an account? Register now (free) for customized features, flight alerts, and more!